sensor_id;sensor_type;location;lat;lon;timestamp;P1;durP1;ratioP1;P2;durP2;ratioP2
68543;SDS011;55534;52.222;5.156;2023-06-26T00:00:01;7.13;;;5.57;;
68543;SDS011;55534;52.222;5.156;2023-06-26T00:02:30;6.45;;;5.03;;
68543;SDS011;55534;52.222;5.156;2023-06-26T00:04:58;4.80;;;4.40;;
68543;SDS011;55534;52.222;5.156;2023-06-26T00:07:23;6.03;;;5.00;;
68543;SDS011;55534;52.222;5.156;2023-06-26T00:09:49;5.50;;;4.85;;
68543;SDS011;55534;52.222;5.156;2023-06-26T00:12:14;5.18;;;4.68;;
68543;SDS011;55534;52.222;5.156;2023-06-26T00:14:40;8.60;;;5.25;;
68543;SDS011;55534;52.222;5.156;2023-06-26T00:17:05;6.40;;;5.75;;
68543;SDS011;55534;52.222;5.156;2023-06-26T00:19:30;7.55;;;5.45;;
68543;SDS011;55534;52.222;5.156;2023-06-26T00:21:56;5.40;;;4.85;;
68543;SDS011;55534;52.222;5.156;2023-06-26T00:24:21;7.07;;;5.43;;
68543;SDS011;55534;52.222;5.156;2023-06-26T00:26:47;7.85;;;5.43;;
68543;SDS011;55534;52.222;5.156;2023-06-26T00:29:13;6.95;;;5.55;;
68543;SDS011;55534;52.222;5.156;2023-06-26T00:31:40;5.35;;;4.63;;
68543;SDS011;55534;52.222;5.156;2023-06-26T00:34:06;6.10;;;5.50;;
68543;SDS011;55534;52.222;5.156;2023-06-26T00:36:32;6.85;;;4.30;;
68543;SDS011;55534;52.222;5.156;2023-06-26T00:38:58;5.72;;;5.13;;
68543;SDS011;55534;52.222;5.156;2023-06-26T00:41:23;5.07;;;4.57;;
68543;SDS011;55534;52.222;5.156;2023-06-26T00:43:49;6.03;;;5.18;;
68543;SDS011;55534;52.222;5.156;2023-06-26T00:46:15;5.47;;;4.78;;
68543;SDS011;55534;52.222;5.156;2023-06-26T00:48:41;5.32;;;4.82;;
68543;SDS011;55534;52.222;5.156;2023-06-26T00:51:08;11.55;;;5.32;;
68543;SDS011;55534;52.222;5.156;2023-06-26T00:53:34;5.93;;;4.50;;
68543;SDS011;55534;52.222;5.156;2023-06-26T00:56:02;5.13;;;4.63;;
68543;SDS011;55534;52.222;5.156;2023-06-26T00:58:28;7.55;;;4.97;;
68543;SDS011;55534;52.222;5.156;2023-06-26T01:00:56;5.63;;;4.88;;
68543;SDS011;55534;52.222;5.156;2023-06-26T01:03:22;8.68;;;5.57;;
68543;SDS011;55534;52.222;5.156;2023-06-26T01:05:49;6.90;;;5.10;;
68543;SDS011;55534;52.222;5.156;2023-06-26T01:08:17;9.57;;;5.13;;
68543;SDS011;55534;52.222;5.156;2023-06-26T01:10:43;7.60;;;5.57;;
68543;SDS011;55534;52.222;5.156;2023-06-26T01:13:10;7.55;;;4.85;;
68543;SDS011;55534;52.222;5.156;2023-06-26T01:15:37;6.43;;;4.72;;
68543;SDS011;55534;52.222;5.156;2023-06-26T01:18:02;7.07;;;4.90;;
68543;SDS011;55534;52.222;5.156;2023-06-26T01:20:30;12.00;;;5.95;;
68543;SDS011;55534;52.222;5.156;2023-06-26T01:28:06;6.75;;;5.20;;
68543;SDS011;55534;52.222;5.156;2023-06-26T01:30:34;8.82;;;4.90;;
68543;SDS011;55534;52.222;5.156;2023-06-26T01:33:03;8.20;;;4.50;;
68543;SDS011;55534;52.222;5.156;2023-06-26T01:35:29;5.10;;;4.60;;
68543;SDS011;55534;52.222;5.156;2023-06-26T01:38:11;7.80;;;5.20;;
68543;SDS011;55534;52.222;5.156;2023-06-26T01:40:43;7.45;;;4.70;;
68543;SDS011;55534;52.222;5.156;2023-06-26T01:43:11;5.90;;;3.88;;
68543;SDS011;55534;52.222;5.156;2023-06-26T01:46:08;5.75;;;4.03;;
68543;SDS011;55534;52.222;5.156;2023-06-26T01:51:42;8.93;;;3.60;;
68543;SDS011;55534;52.222;5.156;2023-06-26T01:54:17;8.45;;;3.47;;
68543;SDS011;55534;52.222;5.156;2023-06-26T01:56:45;6.43;;;4.03;;
68543;SDS011;55534;52.222;5.156;2023-06-26T01:59:14;7.78;;;3.60;;
68543;SDS011;55534;52.222;5.156;2023-06-26T02:01:40;6.32;;;3.45;;
68543;SDS011;55534;52.222;5.156;2023-06-26T02:04:06;7.88;;;4.43;;
68543;SDS011;55534;52.222;5.156;2023-06-26T02:06:31;8.82;;;4.47;;
68543;SDS011;55534;52.222;5.156;2023-06-26T02:08:58;7.85;;;3.92;;
68543;SDS011;55534;52.222;5.156;2023-06-26T02:11:23;7.22;;;3.67;;
68543;SDS011;55534;52.222;5.156;2023-06-26T02:13:49;6.55;;;3.70;;
68543;SDS011;55534;52.222;5.156;2023-06-26T02:16:14;10.07;;;4.75;;
68543;SDS011;55534;52.222;5.156;2023-06-26T02:18:41;7.38;;;3.88;;
68543;SDS011;55534;52.222;5.156;2023-06-26T02:21:06;12.40;;;4.20;;
68543;SDS011;55534;52.222;5.156;2023-06-26T02:23:32;7.63;;;3.72;;
68543;SDS011;55534;52.222;5.156;2023-06-26T02:25:58;10.20;;;4.10;;
68543;SDS011;55534;52.222;5.156;2023-06-26T02:28:23;6.85;;;3.63;;
68543;SDS011;55534;52.222;5.156;2023-06-26T02:30:49;8.48;;;3.90;;
68543;SDS011;55534;52.222;5.156;2023-06-26T02:33:14;7.13;;;3.72;;
68543;SDS011;55534;52.222;5.156;2023-06-26T02:35:39;8.55;;;3.72;;
68543;SDS011;55534;52.222;5.156;2023-06-26T02:38:05;8.60;;;4.07;;
68543;SDS011;55534;52.222;5.156;2023-06-26T02:40:30;10.05;;;3.95;;
68543;SDS011;55534;52.222;5.156;2023-06-26T02:42:57;7.57;;;3.97;;
68543;SDS011;55534;52.222;5.156;2023-06-26T02:45:23;9.98;;;4.00;;
68543;SDS011;55534;52.222;5.156;2023-06-26T02:47:48;10.00;;;4.20;;
68543;SDS011;55534;52.222;5.156;2023-06-26T02:50:14;11.52;;;4.10;;
68543;SDS011;55534;52.222;5.156;2023-06-26T02:52:58;12.75;;;5.13;;
68543;SDS011;55534;52.222;5.156;2023-06-26T02:55:24;12.52;;;5.07;;
68543;SDS011;55534;52.222;5.156;2023-06-26T02:57:51;17.13;;;5.82;;
68543;SDS011;55534;52.222;5.156;2023-06-26T03:00:17;11.60;;;4.88;;
68543;SDS011;55534;52.222;5.156;2023-06-26T03:02:47;14.98;;;4.95;;
68543;SDS011;55534;52.222;5.156;2023-06-26T03:05:16;13.05;;;5.47;;
68543;SDS011;55534;52.222;5.156;2023-06-26T03:07:42;14.00;;;5.15;;
68543;SDS011;55534;52.222;5.156;2023-06-26T03:10:09;16.23;;;5.90;;
68543;SDS011;55534;52.222;5.156;2023-06-26T03:12:34;15.52;;;5.13;;
68543;SDS011;55534;52.222;5.156;2023-06-26T03:15:00;13.23;;;5.30;;
68543;SDS011;55534;52.222;5.156;2023-06-26T03:17:26;13.05;;;5.18;;
68543;SDS011;55534;52.222;5.156;2023-06-26T03:19:54;15.60;;;5.90;;
68543;SDS011;55534;52.222;5.156;2023-06-26T03:22:22;13.00;;;5.60;;
68543;SDS011;55534;52.222;5.156;2023-06-26T03:24:47;17.33;;;5.68;;
68543;SDS011;55534;52.222;5.156;2023-06-26T03:27:13;10.95;;;4.97;;
68543;SDS011;55534;52.222;5.156;2023-06-26T03:29:38;18.52;;;5.30;;
68543;SDS011;55534;52.222;5.156;2023-06-26T03:32:05;12.43;;;5.03;;
68543;SDS011;55534;52.222;5.156;2023-06-26T03:34:31;17.63;;;6.35;;
68543;SDS011;55534;52.222;5.156;2023-06-26T03:36:56;16.17;;;4.78;;
68543;SDS011;55534;52.222;5.156;2023-06-26T03:39:22;14.90;;;5.72;;
68543;SDS011;55534;52.222;5.156;2023-06-26T03:41:47;11.25;;;5.85;;
68543;SDS011;55534;52.222;5.156;2023-06-26T03:44:13;12.85;;;5.22;;
68543;SDS011;55534;52.222;5.156;2023-06-26T03:46:45;14.63;;;5.63;;
68543;SDS011;55534;52.222;5.156;2023-06-26T03:49:10;10.43;;;4.63;;
68543;SDS011;55534;52.222;5.156;2023-06-26T03:51:36;13.63;;;5.25;;
68543;SDS011;55534;52.222;5.156;2023-06-26T03:54:02;13.30;;;5.53;;
68543;SDS011;55534;52.222;5.156;2023-06-26T03:56:27;13.65;;;5.60;;
68543;SDS011;55534;52.222;5.156;2023-06-26T03:58:53;12.00;;;4.75;;
68543;SDS011;55534;52.222;5.156;2023-06-26T04:01:18;13.10;;;4.90;;
68543;SDS011;55534;52.222;5.156;2023-06-26T04:03:47;13.20;;;4.55;;
68543;SDS011;55534;52.222;5.156;2023-06-26T04:06:13;11.15;;;4.80;;
68543;SDS011;55534;52.222;5.156;2023-06-26T04:08:38;15.80;;;5.47;;
68543;SDS011;55534;52.222;5.156;2023-06-26T04:11:04;13.35;;;5.13;;
68543;SDS011;55534;52.222;5.156;2023-06-26T04:13:30;12.20;;;3.63;;
68543;SDS011;55534;52.222;5.156;2023-06-26T04:15:55;10.50;;;3.58;;
68543;SDS011;55534;52.222;5.156;2023-06-26T04:18:20;12.07;;;5.35;;
68543;SDS011;55534;52.222;5.156;2023-06-26T04:23:34;10.85;;;4.40;;
68543;SDS011;55534;52.222;5.156;2023-06-26T04:26:00;15.32;;;4.95;;
68543;SDS011;55534;52.222;5.156;2023-06-26T04:28:27;10.93;;;4.07;;
68543;SDS011;55534;52.222;5.156;2023-06-26T04:30:53;11.90;;;4.10;;
68543;SDS011;55534;52.222;5.156;2023-06-26T04:33:19;9.20;;;3.20;;
68543;SDS011;55534;52.222;5.156;2023-06-26T04:35:44;9.38;;;3.55;;
68543;SDS011;55534;52.222;5.156;2023-06-26T04:38:13;7.82;;;3.20;;
68543;SDS011;55534;52.222;5.156;2023-06-26T04:40:39;7.43;;;2.85;;
68543;SDS011;55534;52.222;5.156;2023-06-26T04:43:05;8.68;;;2.28;;
68543;SDS011;55534;52.222;5.156;2023-06-26T04:45:30;9.45;;;3.17;;
68543;SDS011;55534;52.222;5.156;2023-06-26T04:47:55;8.52;;;2.60;;
68543;SDS011;55534;52.222;5.156;2023-06-26T04:50:22;8.02;;;3.00;;
68543;SDS011;55534;52.222;5.156;2023-06-26T04:52:47;6.47;;;2.63;;
68543;SDS011;55534;52.222;5.156;2023-06-26T04:55:13;8.25;;;3.03;;
68543;SDS011;55534;52.222;5.156;2023-06-26T04:57:38;6.70;;;2.83;;
68543;SDS011;55534;52.222;5.156;2023-06-26T05:00:04;8.35;;;3.35;;
68543;SDS011;55534;52.222;5.156;2023-06-26T05:02:35;5.28;;;2.30;;
68543;SDS011;55534;52.222;5.156;2023-06-26T05:05:00;6.95;;;2.45;;
68543;SDS011;55534;52.222;5.156;2023-06-26T05:07:26;5.03;;;1.95;;
68543;SDS011;55534;52.222;5.156;2023-06-26T05:09:51;5.53;;;2.65;;
68543;SDS011;55534;52.222;5.156;2023-06-26T05:12:17;5.78;;;3.00;;
68543;SDS011;55534;52.222;5.156;2023-06-26T05:14:42;4.85;;;1.92;;
68543;SDS011;55534;52.222;5.156;2023-06-26T05:17:08;6.78;;;2.60;;
68543;SDS011;55534;52.222;5.156;2023-06-26T05:19:33;5.47;;;2.30;;
68543;SDS011;55534;52.222;5.156;2023-06-26T05:21:59;5.32;;;2.25;;
68543;SDS011;55534;52.222;5.156;2023-06-26T05:24:29;6.22;;;1.83;;
68543;SDS011;55534;52.222;5.156;2023-06-26T05:26:56;3.88;;;2.22;;
68543;SDS011;55534;52.222;5.156;2023-06-26T05:29:21;5.47;;;2.75;;
68543;SDS011;55534;52.222;5.156;2023-06-26T05:31:47;6.07;;;1.92;;
68543;SDS011;55534;52.222;5.156;2023-06-26T05:34:14;6.93;;;1.95;;
68543;SDS011;55534;52.222;5.156;2023-06-26T05:36:42;5.70;;;2.75;;
68543;SDS011;55534;52.222;5.156;2023-06-26T05:39:08;7.05;;;2.55;;
68543;SDS011;55534;52.222;5.156;2023-06-26T05:41:34;8.30;;;2.20;;
68543;SDS011;55534;52.222;5.156;2023-06-26T05:44:01;5.13;;;1.55;;
68543;SDS011;55534;52.222;5.156;2023-06-26T05:46:27;5.72;;;2.30;;
68543;SDS011;55534;52.222;5.156;2023-06-26T05:48:52;3.13;;;1.75;;
68543;SDS011;55534;52.222;5.156;2023-06-26T05:51:18;5.72;;;2.45;;
68543;SDS011;55534;52.222;5.156;2023-06-26T05:53:43;3.55;;;1.65;;
68543;SDS011;55534;52.222;5.156;2023-06-26T05:56:09;6.40;;;2.33;;
68543;SDS011;55534;52.222;5.156;2023-06-26T05:58:35;5.20;;;1.70;;
68543;SDS011;55534;52.222;5.156;2023-06-26T06:01:00;5.00;;;2.22;;
68543;SDS011;55534;52.222;5.156;2023-06-26T06:03:26;9.13;;;3.30;;
68543;SDS011;55534;52.222;5.156;2023-06-26T06:05:51;2.88;;;1.85;;
68543;SDS011;55534;52.222;5.156;2023-06-26T06:08:17;6.30;;;2.15;;
68543;SDS011;55534;52.222;5.156;2023-06-26T06:10:42;4.82;;;1.50;;
68543;SDS011;55534;52.222;5.156;2023-06-26T06:13:08;5.97;;;1.70;;
68543;SDS011;55534;52.222;5.156;2023-06-26T06:15:33;4.68;;;1.80;;
68543;SDS011;55534;52.222;5.156;2023-06-26T06:17:58;4.00;;;1.60;;
68543;SDS011;55534;52.222;5.156;2023-06-26T06:20:24;4.35;;;1.70;;
68543;SDS011;55534;52.222;5.156;2023-06-26T06:22:50;9.15;;;2.28;;
68543;SDS011;55534;52.222;5.156;2023-06-26T06:25:15;3.92;;;1.73;;
68543;SDS011;55534;52.222;5.156;2023-06-26T06:27:41;4.32;;;1.42;;
68543;SDS011;55534;52.222;5.156;2023-06-26T06:30:06;4.35;;;2.05;;
68543;SDS011;55534;52.222;5.156;2023-06-26T06:32:33;5.07;;;2.00;;
68543;SDS011;55534;52.222;5.156;2023-06-26T06:34:58;4.32;;;1.52;;
68543;SDS011;55534;52.222;5.156;2023-06-26T06:37:24;4.82;;;1.55;;
68543;SDS011;55534;52.222;5.156;2023-06-26T06:39:49;4.72;;;2.05;;
68543;SDS011;55534;52.222;5.156;2023-06-26T06:42:15;5.70;;;1.90;;
68543;SDS011;55534;52.222;5.156;2023-06-26T06:44:40;5.28;;;1.92;;
68543;SDS011;55534;52.222;5.156;2023-06-26T06:47:05;4.60;;;2.30;;
68543;SDS011;55534;52.222;5.156;2023-06-26T06:49:31;6.13;;;2.28;;
68543;SDS011;55534;52.222;5.156;2023-06-26T06:51:56;12.27;;;2.75;;
68543;SDS011;55534;52.222;5.156;2023-06-26T06:54:25;7.25;;;3.03;;
68543;SDS011;55534;52.222;5.156;2023-06-26T06:56:52;6.03;;;1.90;;
68543;SDS011;55534;52.222;5.156;2023-06-26T06:59:17;5.95;;;2.45;;
68543;SDS011;55534;52.222;5.156;2023-06-26T07:01:43;5.50;;;2.10;;
68543;SDS011;55534;52.222;5.156;2023-06-26T07:04:08;8.32;;;2.78;;
68543;SDS011;55534;52.222;5.156;2023-06-26T07:06:33;5.40;;;3.22;;
68543;SDS011;55534;52.222;5.156;2023-06-26T07:08:59;7.30;;;2.53;;
68543;SDS011;55534;52.222;5.156;2023-06-26T07:11:24;7.07;;;2.47;;
68543;SDS011;55534;52.222;5.156;2023-06-26T07:13:50;5.43;;;2.00;;
68543;SDS011;55534;52.222;5.156;2023-06-26T07:16:15;6.45;;;2.47;;
68543;SDS011;55534;52.222;5.156;2023-06-26T07:18:41;4.55;;;2.15;;
68543;SDS011;55534;52.222;5.156;2023-06-26T07:21:07;5.45;;;2.33;;
68543;SDS011;55534;52.222;5.156;2023-06-26T07:23:32;7.20;;;1.85;;
68543;SDS011;55534;52.222;5.156;2023-06-26T07:25:58;4.35;;;1.90;;
68543;SDS011;55534;52.222;5.156;2023-06-26T07:28:24;7.57;;;1.90;;
68543;SDS011;55534;52.222;5.156;2023-06-26T07:30:50;11.30;;;2.20;;
68543;SDS011;55534;52.222;5.156;2023-06-26T07:33:15;5.35;;;1.98;;
68543;SDS011;55534;52.222;5.156;2023-06-26T07:35:41;6.03;;;1.85;;
68543;SDS011;55534;52.222;5.156;2023-06-26T07:38:06;4.60;;;1.50;;
68543;SDS011;55534;52.222;5.156;2023-06-26T07:40:32;6.78;;;2.10;;
68543;SDS011;55534;52.222;5.156;2023-06-26T07:42:57;8.25;;;1.88;;
68543;SDS011;55534;52.222;5.156;2023-06-26T07:45:23;6.25;;;2.17;;
68543;SDS011;55534;52.222;5.156;2023-06-26T07:47:49;9.50;;;2.60;;
68543;SDS011;55534;52.222;5.156;2023-06-26T07:50:14;6.78;;;1.85;;
68543;SDS011;55534;52.222;5.156;2023-06-26T07:52:44;8.27;;;1.85;;
68543;SDS011;55534;52.222;5.156;2023-06-26T07:55:10;9.27;;;2.17;;
68543;SDS011;55534;52.222;5.156;2023-06-26T07:57:35;7.63;;;1.50;;
68543;SDS011;55534;52.222;5.156;2023-06-26T08:00:01;4.22;;;1.80;;
68543;SDS011;55534;52.222;5.156;2023-06-26T08:02:26;5.90;;;1.17;;
68543;SDS011;55534;52.222;5.156;2023-06-26T08:04:52;7.20;;;1.38;;
68543;SDS011;55534;52.222;5.156;2023-06-26T08:07:17;8.40;;;1.98;;
68543;SDS011;55534;52.222;5.156;2023-06-26T08:09:43;7.95;;;1.85;;
68543;SDS011;55534;52.222;5.156;2023-06-26T08:12:09;6.10;;;1.50;;
68543;SDS011;55534;52.222;5.156;2023-06-26T08:14:35;6.05;;;1.65;;
68543;SDS011;55534;52.222;5.156;2023-06-26T08:17:00;5.15;;;1.52;;
68543;SDS011;55534;52.222;5.156;2023-06-26T08:19:26;7.63;;;1.80;;
68543;SDS011;55534;52.222;5.156;2023-06-26T08:21:52;9.23;;;1.70;;
68543;SDS011;55534;52.222;5.156;2023-06-26T08:24:17;10.98;;;1.30;;
68543;SDS011;55534;52.222;5.156;2023-06-26T08:26:44;4.97;;;1.67;;
68543;SDS011;55534;52.222;5.156;2023-06-26T08:29:11;6.72;;;1.65;;
68543;SDS011;55534;52.222;5.156;2023-06-26T08:31:37;5.18;;;1.30;;
68543;SDS011;55534;52.222;5.156;2023-06-26T08:34:03;6.65;;;1.52;;
68543;SDS011;55534;52.222;5.156;2023-06-26T08:36:30;8.77;;;1.70;;
68543;SDS011;55534;52.222;5.156;2023-06-26T08:38:56;10.38;;;1.30;;
68543;SDS011;55534;52.222;5.156;2023-06-26T08:41:21;7.20;;;1.75;;
68543;SDS011;55534;52.222;5.156;2023-06-26T08:43:47;4.30;;;1.38;;
68543;SDS011;55534;52.222;5.156;2023-06-26T08:46:14;7.18;;;1.80;;
68543;SDS011;55534;52.222;5.156;2023-06-26T08:48:40;5.75;;;1.33;;
68543;SDS011;55534;52.222;5.156;2023-06-26T08:51:09;9.50;;;1.55;;
68543;SDS011;55534;52.222;5.156;2023-06-26T08:53:52;10.25;;;2.25;;
68543;SDS011;55534;52.222;5.156;2023-06-26T08:56:28;5.88;;;2.85;;
68543;SDS011;55534;52.222;5.156;2023-06-26T08:58:57;6.53;;;1.40;;
68543;SDS011;55534;52.222;5.156;2023-06-26T09:01:23;7.68;;;1.85;;
68543;SDS011;55534;52.222;5.156;2023-06-26T09:03:50;5.40;;;1.50;;
68543;SDS011;55534;52.222;5.156;2023-06-26T09:06:16;10.88;;;2.35;;
68543;SDS011;55534;52.222;5.156;2023-06-26T09:08:43;4.50;;;1.55;;
68543;SDS011;55534;52.222;5.156;2023-06-26T09:11:08;7.70;;;2.40;;
68543;SDS011;55534;52.222;5.156;2023-06-26T09:13:34;6.15;;;1.27;;
68543;SDS011;55534;52.222;5.156;2023-06-26T09:16:03;11.40;;;1.88;;
68543;SDS011;55534;52.222;5.156;2023-06-26T09:18:30;4.60;;;1.60;;
68543;SDS011;55534;52.222;5.156;2023-06-26T09:20:57;8.52;;;2.08;;
68543;SDS011;55534;52.222;5.156;2023-06-26T09:23:23;5.65;;;1.30;;
68543;SDS011;55534;52.222;5.156;2023-06-26T09:25:49;5.30;;;0.95;;
68543;SDS011;55534;52.222;5.156;2023-06-26T09:28:16;3.50;;;1.25;;
68543;SDS011;55534;52.222;5.156;2023-06-26T09:30:44;5.68;;;1.38;;
68543;SDS011;55534;52.222;5.156;2023-06-26T09:33:20;4.53;;;0.93;;
68543;SDS011;55534;52.222;5.156;2023-06-26T09:35:46;5.43;;;1.17;;
68543;SDS011;55534;52.222;5.156;2023-06-26T09:38:13;3.42;;;1.25;;
68543;SDS011;55534;52.222;5.156;2023-06-26T09:40:39;5.75;;;1.20;;
68543;SDS011;55534;52.222;5.156;2023-06-26T09:43:05;4.32;;;1.38;;
68543;SDS011;55534;52.222;5.156;2023-06-26T09:45:34;4.13;;;0.93;;
68543;SDS011;55534;52.222;5.156;2023-06-26T09:48:03;5.13;;;1.45;;
68543;SDS011;55534;52.222;5.156;2023-06-26T09:50:30;2.55;;;0.90;;
68543;SDS011;55534;52.222;5.156;2023-06-26T09:53:06;3.35;;;0.70;;
68543;SDS011;55534;52.222;5.156;2023-06-26T09:55:36;9.85;;;1.33;;
68543;SDS011;55534;52.222;5.156;2023-06-26T09:58:03;2.92;;;1.15;;
68543;SDS011;55534;52.222;5.156;2023-06-26T10:00:32;3.63;;;0.80;;
68543;SDS011;55534;52.222;5.156;2023-06-26T10:02:58;6.72;;;1.10;;
68543;SDS011;55534;52.222;5.156;2023-06-26T10:05:25;4.47;;;0.95;;
68543;SDS011;55534;52.222;5.156;2023-06-26T10:07:50;3.55;;;0.95;;
68543;SDS011;55534;52.222;5.156;2023-06-26T10:10:18;4.57;;;0.82;;
68543;SDS011;55534;52.222;5.156;2023-06-26T10:12:45;4.28;;;0.93;;
68543;SDS011;55534;52.222;5.156;2023-06-26T10:15:14;2.80;;;0.98;;
68543;SDS011;55534;52.222;5.156;2023-06-26T10:17:42;2.53;;;0.60;;
68543;SDS011;55534;52.222;5.156;2023-06-26T10:20:08;6.10;;;1.75;;
68543;SDS011;55534;52.222;5.156;2023-06-26T10:22:44;3.42;;;0.90;;
68543;SDS011;55534;52.222;5.156;2023-06-26T10:25:12;2.90;;;0.80;;
68543;SDS011;55534;52.222;5.156;2023-06-26T10:27:44;7.53;;;1.38;;
68543;SDS011;55534;52.222;5.156;2023-06-26T10:30:22;2.55;;;0.98;;
68543;SDS011;55534;52.222;5.156;2023-06-26T10:32:54;4.93;;;1.00;;
68543;SDS011;55534;52.222;5.156;2023-06-26T10:35:21;2.83;;;0.90;;
68543;SDS011;55534;52.222;5.156;2023-06-26T10:37:47;5.38;;;1.45;;
68543;SDS011;55534;52.222;5.156;2023-06-26T10:40:22;2.35;;;0.98;;
68543;SDS011;55534;52.222;5.156;2023-06-26T10:42:50;2.78;;;0.70;;
68543;SDS011;55534;52.222;5.156;2023-06-26T10:45:19;3.40;;;0.98;;
68543;SDS011;55534;52.222;5.156;2023-06-26T10:47:47;3.00;;;0.90;;
68543;SDS011;55534;52.222;5.156;2023-06-26T10:55:43;3.65;;;1.05;;
68543;SDS011;55534;52.222;5.156;2023-06-26T11:04:01;3.97;;;0.88;;
68543;SDS011;55534;52.222;5.156;2023-06-26T11:06:30;4.03;;;0.80;;
68543;SDS011;55534;52.222;5.156;2023-06-26T11:14:25;3.00;;;0.70;;
68543;SDS011;55534;52.222;5.156;2023-06-26T11:16:55;4.38;;;1.20;;
68543;SDS011;55534;52.222;5.156;2023-06-26T11:19:22;3.08;;;1.02;;
68543;SDS011;55534;52.222;5.156;2023-06-26T11:21:47;5.70;;;0.93;;
68543;SDS011;55534;52.222;5.156;2023-06-26T11:24:14;2.55;;;0.80;;
68543;SDS011;55534;52.222;5.156;2023-06-26T11:26:39;2.75;;;0.68;;
68543;SDS011;55534;52.222;5.156;2023-06-26T11:29:06;2.10;;;0.60;;
68543;SDS011;55534;52.222;5.156;2023-06-26T11:31:32;4.35;;;0.75;;
68543;SDS011;55534;52.222;5.156;2023-06-26T11:34:05;3.67;;;0.60;;
68543;SDS011;55534;52.222;5.156;2023-06-26T11:36:38;3.17;;;0.82;;
68543;SDS011;55534;52.222;5.156;2023-06-26T11:39:05;3.13;;;0.65;;
68543;SDS011;55534;52.222;5.156;2023-06-26T11:41:32;4.28;;;1.08;;
68543;SDS011;55534;52.222;5.156;2023-06-26T11:44:05;4.53;;;0.68;;
68543;SDS011;55534;52.222;5.156;2023-06-26T11:46:31;4.72;;;0.68;;
68543;SDS011;55534;52.222;5.156;2023-06-26T11:48:59;5.15;;;0.52;;
68543;SDS011;55534;52.222;5.156;2023-06-26T11:51:26;2.40;;;1.08;;
68543;SDS011;55534;52.222;5.156;2023-06-26T11:53:52;5.30;;;1.65;;
68543;SDS011;55534;52.222;5.156;2023-06-26T11:56:18;5.32;;;0.60;;
68543;SDS011;55534;52.222;5.156;2023-06-26T12:01:42;23.48;;;1.40;;
68543;SDS011;55534;52.222;5.156;2023-06-26T12:04:12;3.80;;;0.68;;
68543;SDS011;55534;52.222;5.156;2023-06-26T12:06:41;3.33;;;0.60;;
68543;SDS011;55534;52.222;5.156;2023-06-26T12:09:11;6.28;;;0.93;;
68543;SDS011;55534;52.222;5.156;2023-06-26T12:11:38;2.63;;;0.50;;
68543;SDS011;55534;52.222;5.156;2023-06-26T12:14:05;1.88;;;1.00;;
68543;SDS011;55534;52.222;5.156;2023-06-26T12:16:32;2.00;;;0.55;;
68543;SDS011;55534;52.222;5.156;2023-06-26T12:19:00;4.70;;;0.73;;
68543;SDS011;55534;52.222;5.156;2023-06-26T12:24:06;3.75;;;0.80;;
68543;SDS011;55534;52.222;5.156;2023-06-26T12:26:32;5.15;;;1.10;;
68543;SDS011;55534;52.222;5.156;2023-06-26T12:29:08;1.08;;;0.50;;
68543;SDS011;55534;52.222;5.156;2023-06-26T12:31:39;6.07;;;0.85;;
68543;SDS011;55534;52.222;5.156;2023-06-26T12:34:10;2.80;;;0.63;;
68543;SDS011;55534;52.222;5.156;2023-06-26T12:36:47;4.90;;;1.35;;
68543;SDS011;55534;52.222;5.156;2023-06-26T12:39:17;3.75;;;0.75;;
68543;SDS011;55534;52.222;5.156;2023-06-26T12:41:48;5.38;;;0.70;;
68543;SDS011;55534;52.222;5.156;2023-06-26T12:46:59;2.78;;;0.80;;
68543;SDS011;55534;52.222;5.156;2023-06-26T12:49:45;3.08;;;0.68;;
68543;SDS011;55534;52.222;5.156;2023-06-26T12:52:15;4.30;;;1.00;;
68543;SDS011;55534;52.222;5.156;2023-06-26T12:54:41;4.75;;;0.70;;
68543;SDS011;55534;52.222;5.156;2023-06-26T12:57:08;2.40;;;0.68;;
68543;SDS011;55534;52.222;5.156;2023-06-26T12:59:35;3.20;;;0.77;;
68543;SDS011;55534;52.222;5.156;2023-06-26T13:02:02;3.40;;;0.85;;
68543;SDS011;55534;52.222;5.156;2023-06-26T13:04:27;5.93;;;1.10;;
68543;SDS011;55534;52.222;5.156;2023-06-26T13:06:56;5.95;;;1.65;;
68543;SDS011;55534;52.222;5.156;2023-06-26T13:09:22;5.90;;;0.80;;
68543;SDS011;55534;52.222;5.156;2023-06-26T13:11:52;4.28;;;1.10;;
68543;SDS011;55534;52.222;5.156;2023-06-26T13:14:18;5.72;;;0.95;;
68543;SDS011;55534;52.222;5.156;2023-06-26T13:16:43;2.13;;;0.70;;
68543;SDS011;55534;52.222;5.156;2023-06-26T13:19:09;4.32;;;1.55;;
68543;SDS011;55534;52.222;5.156;2023-06-26T13:21:35;3.47;;;1.02;;
68543;SDS011;55534;52.222;5.156;2023-06-26T13:24:00;4.03;;;0.65;;
68543;SDS011;55534;52.222;5.156;2023-06-26T13:26:26;3.22;;;0.80;;
68543;SDS011;55534;52.222;5.156;2023-06-26T13:28:56;5.78;;;1.05;;
68543;SDS011;55534;52.222;5.156;2023-06-26T13:31:22;3.10;;;0.63;;
68543;SDS011;55534;52.222;5.156;2023-06-26T13:33:47;2.85;;;0.90;;
68543;SDS011;55534;52.222;5.156;2023-06-26T13:36:15;2.65;;;0.77;;
68543;SDS011;55534;52.222;5.156;2023-06-26T13:38:41;1.70;;;0.47;;
68543;SDS011;55534;52.222;5.156;2023-06-26T13:41:06;2.65;;;0.70;;
68543;SDS011;55534;52.222;5.156;2023-06-26T13:43:32;5.50;;;1.20;;
68543;SDS011;55534;52.222;5.156;2023-06-26T13:45:58;2.22;;;0.70;;
68543;SDS011;55534;52.222;5.156;2023-06-26T13:48:23;2.15;;;0.60;;
68543;SDS011;55534;52.222;5.156;2023-06-26T13:50:49;7.20;;;1.30;;
68543;SDS011;55534;52.222;5.156;2023-06-26T13:53:15;4.60;;;0.63;;
68543;SDS011;55534;52.222;5.156;2023-06-26T13:55:41;3.92;;;0.55;;
68543;SDS011;55534;52.222;5.156;2023-06-26T13:58:07;3.50;;;0.60;;
68543;SDS011;55534;52.222;5.156;2023-06-26T14:00:33;1.85;;;0.50;;
68543;SDS011;55534;52.222;5.156;2023-06-26T14:03:00;4.20;;;0.88;;
68543;SDS011;55534;52.222;5.156;2023-06-26T14:05:28;1.63;;;0.90;;
68543;SDS011;55534;52.222;5.156;2023-06-26T14:07:53;4.40;;;0.85;;
68543;SDS011;55534;52.222;5.156;2023-06-26T14:10:20;3.08;;;0.73;;
68543;SDS011;55534;52.222;5.156;2023-06-26T14:12:46;2.60;;;0.50;;
68543;SDS011;55534;52.222;5.156;2023-06-26T14:15:11;3.72;;;0.68;;
68543;SDS011;55534;52.222;5.156;2023-06-26T14:17:37;3.63;;;0.70;;
68543;SDS011;55534;52.222;5.156;2023-06-26T14:20:05;3.55;;;0.65;;
68543;SDS011;55534;52.222;5.156;2023-06-26T14:22:35;2.97;;;0.80;;
68543;SDS011;55534;52.222;5.156;2023-06-26T14:25:01;7.88;;;1.20;;
68543;SDS011;55534;52.222;5.156;2023-06-26T14:27:27;3.70;;;1.00;;
68543;SDS011;55534;52.222;5.156;2023-06-26T14:29:52;4.95;;;0.75;;
68543;SDS011;55534;52.222;5.156;2023-06-26T14:32:18;2.15;;;0.68;;
68543;SDS011;55534;52.222;5.156;2023-06-26T14:34:43;4.63;;;1.08;;
68543;SDS011;55534;52.222;5.156;2023-06-26T14:37:09;2.00;;;0.60;;
68543;SDS011;55534;52.222;5.156;2023-06-26T14:39:34;6.97;;;1.05;;
68543;SDS011;55534;52.222;5.156;2023-06-26T14:42:00;5.60;;;0.90;;
68543;SDS011;55534;52.222;5.156;2023-06-26T14:44:25;2.25;;;0.60;;
68543;SDS011;55534;52.222;5.156;2023-06-26T14:46:51;3.17;;;0.80;;
68543;SDS011;55534;52.222;5.156;2023-06-26T14:49:16;2.85;;;0.70;;
68543;SDS011;55534;52.222;5.156;2023-06-26T14:51:41;2.03;;;0.88;;
68543;SDS011;55534;52.222;5.156;2023-06-26T14:54:07;2.85;;;0.70;;
68543;SDS011;55534;52.222;5.156;2023-06-26T14:56:33;5.50;;;1.23;;
68543;SDS011;55534;52.222;5.156;2023-06-26T14:58:59;5.13;;;0.82;;
68543;SDS011;55534;52.222;5.156;2023-06-26T15:01:24;2.90;;;0.70;;
68543;SDS011;55534;52.222;5.156;2023-06-26T15:03:50;2.25;;;0.77;;
68543;SDS011;55534;52.222;5.156;2023-06-26T15:06:15;3.72;;;0.82;;
68543;SDS011;55534;52.222;5.156;2023-06-26T15:08:41;3.03;;;0.70;;
68543;SDS011;55534;52.222;5.156;2023-06-26T15:11:06;5.57;;;1.00;;
68543;SDS011;55534;52.222;5.156;2023-06-26T15:13:32;2.65;;;0.73;;
68543;SDS011;55534;52.222;5.156;2023-06-26T15:15:57;4.10;;;0.75;;
68543;SDS011;55534;52.222;5.156;2023-06-26T15:18:23;4.57;;;1.40;;